createdAt,value
2018-08-18T00:00:20.147Z,64.50
2018-08-18T00:02:48.493Z,64.80
2018-08-18T00:05:17.664Z,64.80
2018-08-18T00:07:46.125Z,64.80
2018-08-18T00:10:16.491Z,64.80
2018-08-18T00:12:45.343Z,64.90
2018-08-18T00:15:13.712Z,64.80
2018-08-18T00:17:42.062Z,64.90
2018-08-18T00:20:12.881Z,64.70
2018-08-18T00:22:41.235Z,64.30
2018-08-18T00:25:09.805Z,64.00
2018-08-18T00:27:38.163Z,63.90
2018-08-18T00:30:13.988Z,64.00
2018-08-18T00:32:42.436Z,63.80
2018-08-18T00:35:10.839Z,64.10
2018-08-18T00:37:39.352Z,63.10
2018-08-18T00:40:08.905Z,63.30
2018-08-18T00:42:37.348Z,63.10
2018-08-18T00:45:07.124Z,63.20
2018-08-18T00:47:35.490Z,63.40
2018-08-18T00:50:04.174Z,63.60
2018-08-18T00:52:32.543Z,63.50
2018-08-18T00:55:00.978Z,63.30
2018-08-18T00:57:30.493Z,63.20
2018-08-18T00:59:59.219Z,63.10
2018-08-18T01:02:27.983Z,63.00
2018-08-18T01:04:58.463Z,63.10
2018-08-18T01:07:27.703Z,63.00
2018-08-18T01:09:56.334Z,62.90
2018-08-18T01:12:25.445Z,62.90
2018-08-18T01:14:54.201Z,63.10
2018-08-18T01:17:23.008Z,63.70
2018-08-18T01:19:52.972Z,63.60
2018-08-18T01:22:21.366Z,63.60
2018-08-18T01:24:50.317Z,63.50
2018-08-18T01:27:18.902Z,63.80
2018-08-18T01:30:17.953Z,63.90
2018-08-18T01:32:46.306Z,64.10
2018-08-18T01:35:14.696Z,64.30
2018-08-18T01:37:43.062Z,64.30
2018-08-18T01:40:11.499Z,64.40
2018-08-18T01:42:39.869Z,64.40
2018-08-18T01:45:08.296Z,64.30
2018-08-18T01:47:36.676Z,64.10
2018-08-18T01:50:11.038Z,64.40
2018-08-18T01:52:39.415Z,64.50
2018-08-18T01:55:08.473Z,65.20
2018-08-18T01:57:36.829Z,64.80
2018-08-18T02:00:20.102Z,64.70
2018-08-18T02:02:48.517Z,64.70
2018-08-18T02:05:18.516Z,65.20
2018-08-18T02:07:46.843Z,65.40
2018-08-18T02:10:15.193Z,65.60
2018-08-18T02:13:14.699Z,65.50
2018-08-18T02:15:44.612Z,65.90
2018-08-18T02:18:13.004Z,66.00
2018-08-18T02:20:41.420Z,66.40
2018-08-18T02:23:09.816Z,66.90
2018-08-18T02:25:38.154Z,67.20
2018-08-18T02:28:07.018Z,67.50
2018-08-18T02:30:35.396Z,67.50
2018-08-18T02:33:03.730Z,67.60
2018-08-18T02:35:32.118Z,67.90
2018-08-18T02:38:00.477Z,67.90
2018-08-18T02:40:28.875Z,67.80
2018-08-18T02:42:57.232Z,67.60
2018-08-18T02:45:25.601Z,67.40
2018-08-18T02:48:09.772Z,67.50
2018-08-18T02:50:40.143Z,67.30
2018-08-18T02:53:20.791Z,67.40
2018-08-18T02:55:49.202Z,67.80
2018-08-18T02:58:17.656Z,67.80
2018-08-18T03:00:46.971Z,68.20
2018-08-18T03:03:15.948Z,68.90
2018-08-18T03:05:44.385Z,69.30
2018-08-18T03:08:12.726Z,69.50
2018-08-18T03:10:41.097Z,69.50
2018-08-18T03:13:09.525Z,70.10
2018-08-18T03:15:55.880Z,69.90
2018-08-18T03:18:32.953Z,70.60
2018-08-18T03:21:02.149Z,69.70
2018-08-18T03:23:30.824Z,69.40
2018-08-18T03:25:59.182Z,69.80
2018-08-18T03:28:27.527Z,70.10
2018-08-18T03:30:56.524Z,70.00
2018-08-18T03:33:24.929Z,69.80
2018-08-18T03:35:53.297Z,70.00
2018-08-18T03:38:21.665Z,70.00
2018-08-18T03:40:50.039Z,70.00
2018-08-18T03:43:18.564Z,69.80
2018-08-18T03:45:46.944Z,70.10
2018-08-18T03:48:15.334Z,70.30
2018-08-18T03:50:48.604Z,70.90
2018-08-18T03:53:18.159Z,72.20
2018-08-18T03:55:46.819Z,72.20
2018-08-18T03:58:15.225Z,72.90
2018-08-18T04:00:43.605Z,72.60
2018-08-18T04:03:12.493Z,72.70
2018-08-18T04:05:40.943Z,72.20
2018-08-18T04:08:09.443Z,72.80
2018-08-18T04:10:37.799Z,73.40
2018-08-18T04:13:06.194Z,73.60
2018-08-18T04:15:34.535Z,73.80
2018-08-18T04:18:08.300Z,74.60
2018-08-18T04:20:36.693Z,75.10
2018-08-18T04:23:05.119Z,75.30
2018-08-18T04:25:33.470Z,75.40
2018-08-18T04:28:01.855Z,75.50
2018-08-18T04:30:30.237Z,75.40
2018-08-18T04:33:02.251Z,75.30
2018-08-18T04:35:31.463Z,75.10
2018-08-18T04:38:01.458Z,75.40
2018-08-18T04:40:29.826Z,76.10
2018-08-18T04:42:59.465Z,76.60
2018-08-18T04:45:27.818Z,77.50
2018-08-18T04:47:56.278Z,77.50
2018-08-18T04:50:24.643Z,77.50
2018-08-18T04:52:54.018Z,78.00
2018-08-18T04:55:22.448Z,76.60
2018-08-18T04:57:50.881Z,76.60
2018-08-18T05:00:19.262Z,76.70
2018-08-18T05:02:53.810Z,77.10
2018-08-18T05:05:25.732Z,77.30
2018-08-18T05:07:54.215Z,77.80
2018-08-18T05:10:22.555Z,77.70
2018-08-18T05:12:50.971Z,77.30
2018-08-18T05:15:19.748Z,77.30
2018-08-18T05:17:49.447Z,76.90
2018-08-18T05:20:20.205Z,76.90
2018-08-18T05:22:48.547Z,77.00
2018-08-18T05:25:18.003Z,77.10
2018-08-18T05:27:46.352Z,76.70
2018-08-18T05:30:14.844Z,76.50
2018-08-18T05:32:43.235Z,76.20
2018-08-18T05:35:11.592Z,76.10
2018-08-18T05:37:40.011Z,76.30
2018-08-18T05:40:08.413Z,76.10
2018-08-18T05:42:36.780Z,76.30
2018-08-18T05:45:20.596Z,76.40
2018-08-18T05:47:49.006Z,76.00
2018-08-18T05:50:17.357Z,76.10
2018-08-18T05:52:45.842Z,75.90
2018-08-18T05:55:14.289Z,75.90
2018-08-18T05:57:42.826Z,75.80
2018-08-18T06:00:16.841Z,76.30
2018-08-18T06:02:50.761Z,75.40
2018-08-18T06:05:19.289Z,75.00
2018-08-18T06:07:47.797Z,74.30
2018-08-18T06:10:16.186Z,73.70
2018-08-18T06:12:44.595Z,74.00
2018-08-18T06:15:13.007Z,73.50
2018-08-18T06:17:41.766Z,73.30
2018-08-18T06:20:10.152Z,73.50
2018-08-18T06:22:38.995Z,73.00
2018-08-18T06:25:08.552Z,72.50
2018-08-18T06:27:36.998Z,72.00
2018-08-18T06:30:06.059Z,70.30
2018-08-18T06:32:34.426Z,70.70
2018-08-18T06:35:03.080Z,70.40
2018-08-18T06:37:31.456Z,69.30
2018-08-18T06:40:00.398Z,69.10
2018-08-18T06:42:35.880Z,69.40
2018-08-18T06:45:07.334Z,68.40
2018-08-18T06:47:35.722Z,69.00
2018-08-18T06:50:05.497Z,67.20
2018-08-18T06:52:33.912Z,66.00
2018-08-18T06:55:02.447Z,65.00
2018-08-18T06:57:42.496Z,65.60
2018-08-18T07:00:13.379Z,64.90
2018-08-18T07:02:41.832Z,64.40
2018-08-18T07:05:12.165Z,63.40
2018-08-18T07:07:41.138Z,62.90
2018-08-18T07:10:23.944Z,60.80
2018-08-18T07:12:53.257Z,60.80
2018-08-18T07:15:23.324Z,60.10
2018-08-18T07:17:52.365Z,60.80
2018-08-18T07:20:21.479Z,59.30
2018-08-18T07:22:50.394Z,58.70
2018-08-18T07:25:19.140Z,58.80
2018-08-18T07:27:48.060Z,57.70
2018-08-18T07:30:16.439Z,57.90
2018-08-18T07:32:44.840Z,57.90
2018-08-18T07:35:13.245Z,57.60
2018-08-18T07:37:41.745Z,57.00
2018-08-18T07:40:10.148Z,56.80
2018-08-18T07:42:38.590Z,55.90
2018-08-18T07:45:06.971Z,55.80
2018-08-18T07:47:36.090Z,55.70
2018-08-18T07:50:07.608Z,54.70
2018-08-18T07:52:36.537Z,54.50
2018-08-18T07:55:04.949Z,53.90
2018-08-18T07:57:35.286Z,52.90
2018-08-18T08:00:03.715Z,52.20
2018-08-18T08:02:32.060Z,52.50
2018-08-18T08:05:00.467Z,53.40
2018-08-18T08:07:28.875Z,54.00
2018-08-18T08:09:57.659Z,53.40
2018-08-18T08:12:26.458Z,51.80
2018-08-18T08:14:54.806Z,52.00
2018-08-18T08:17:23.260Z,52.00
2018-08-18T08:19:51.689Z,52.60
2018-08-18T08:22:20.098Z,50.90
2018-08-18T08:24:48.479Z,49.80
2018-08-18T08:27:16.879Z,49.00
2018-08-18T08:29:45.278Z,46.20
2018-08-18T08:32:13.667Z,47.00
2018-08-18T08:34:46.299Z,46.50
2018-08-18T08:37:15.897Z,46.60
2018-08-18T08:39:44.973Z,46.30
2018-08-18T08:42:13.352Z,45.30
2018-08-18T08:44:42.525Z,43.70
2018-08-18T08:47:12.949Z,45.70
2018-08-18T08:49:41.442Z,43.20
2018-08-18T08:52:09.895Z,43.10
2018-08-18T08:54:39.548Z,42.50
2018-08-18T08:57:09.423Z,42.10
2018-08-18T08:59:39.090Z,41.50
2018-08-18T09:02:08.939Z,41.00
2018-08-18T09:04:37.388Z,41.00
2018-08-18T09:07:08.019Z,40.40
2018-08-18T09:09:36.400Z,40.00
2018-08-18T09:12:04.825Z,38.70
2018-08-18T09:14:33.191Z,38.80
2018-08-18T09:17:01.617Z,38.60
2018-08-18T09:19:29.987Z,38.30
2018-08-18T09:22:01.478Z,36.20
2018-08-18T09:24:30.956Z,36.00
2018-08-18T09:27:00.769Z,37.40
2018-08-18T09:29:59.898Z,36.80
2018-08-18T09:32:28.556Z,37.20
2018-08-18T09:34:56.935Z,38.60
2018-08-18T09:37:25.412Z,39.30
2018-08-18T09:39:53.774Z,39.40
2018-08-18T09:42:22.156Z,37.50
2018-08-18T09:44:53.023Z,37.70
2018-08-18T09:47:21.432Z,37.70
2018-08-18T09:49:49.865Z,37.00
2018-08-18T09:52:19.781Z,37.10
2018-08-18T09:54:48.182Z,36.80
2018-08-18T09:57:16.594Z,36.40
2018-08-18T09:59:45.076Z,37.20
2018-08-18T10:02:14.084Z,37.20
2018-08-18T10:04:42.505Z,37.30
2018-08-18T10:07:11.033Z,37.00
2018-08-18T10:09:39.499Z,37.40
2018-08-18T10:12:07.925Z,37.10
2018-08-18T10:14:36.287Z,37.10
2018-08-18T10:17:04.811Z,37.70
2018-08-18T10:19:33.837Z,37.70
2018-08-18T10:22:02.404Z,38.20
2018-08-18T10:24:30.876Z,38.40
2018-08-18T10:27:04.350Z,37.50
2018-08-18T10:29:32.714Z,36.20
2018-08-18T10:32:01.101Z,36.10
2018-08-18T10:34:31.570Z,35.90
2018-08-18T10:37:02.207Z,36.20
2018-08-18T10:39:30.611Z,35.10
2018-08-18T10:42:10.697Z,34.60
2018-08-18T10:44:41.984Z,34.60
2018-08-18T10:47:14.136Z,33.30
2018-08-18T10:49:53.935Z,33.30
2018-08-18T10:52:34.660Z,33.90
2018-08-18T10:55:05.584Z,34.90
2018-08-18T10:57:46.372Z,34.50
2018-08-18T11:00:19.015Z,33.20
2018-08-18T11:02:48.670Z,33.90
2018-08-18T11:05:17.748Z,34.10
2018-08-18T11:07:53.374Z,34.90
2018-08-18T11:10:22.902Z,33.90
2018-08-18T11:12:51.315Z,33.50
2018-08-18T11:15:19.923Z,31.90
2018-08-18T11:17:48.372Z,31.70
2018-08-18T11:20:19.918Z,32.20
2018-08-18T11:23:00.631Z,32.50
2018-08-18T11:25:33.452Z,30.40
2018-08-18T11:28:02.132Z,29.70
2018-08-18T11:30:30.727Z,30.00
2018-08-18T11:33:00.031Z,30.40
2018-08-18T11:35:28.783Z,29.90
2018-08-18T11:38:07.459Z,29.50
2018-08-18T11:40:35.966Z,29.10
2018-08-18T11:43:05.843Z,29.00
2018-08-18T11:45:35.472Z,29.40
2018-08-18T11:48:12.243Z,29.70
2018-08-18T11:50:40.927Z,29.80
2018-08-18T11:53:09.482Z,29.50
2018-08-18T11:55:38.172Z,29.50
2018-08-18T11:58:08.071Z,29.30
2018-08-18T12:00:44.098Z,28.80
2018-08-18T12:03:14.027Z,28.10
2018-08-18T12:05:48.192Z,28.10
2018-08-18T12:08:19.497Z,28.50
2018-08-18T12:10:49.293Z,28.80
2018-08-18T12:13:17.694Z,29.10
2018-08-18T12:16:02.876Z,28.70
2018-08-18T12:18:32.296Z,29.80
2018-08-18T12:21:02.309Z,30.20
2018-08-18T12:23:31.268Z,30.50
2018-08-18T12:26:05.483Z,30.50
2018-08-18T12:28:39.285Z,30.20
2018-08-18T12:31:11.625Z,29.70
2018-08-18T12:33:40.122Z,29.10
2018-08-18T12:36:08.648Z,28.20
2018-08-18T12:38:38.324Z,28.00
2018-08-18T12:41:06.729Z,28.00
2018-08-18T12:43:36.517Z,29.00
2018-08-18T12:46:08.156Z,30.10
2018-08-18T12:48:38.753Z,31.20
2018-08-18T12:51:08.252Z,31.10
2018-08-18T12:53:41.866Z,31.30
2018-08-18T12:56:12.099Z,31.20
2018-08-18T12:58:40.788Z,32.40
2018-08-18T13:01:09.384Z,32.30
2018-08-18T13:03:37.756Z,32.00
2018-08-18T13:06:07.278Z,30.60
2018-08-18T13:08:35.645Z,29.60
2018-08-18T13:11:04.086Z,28.90
2018-08-18T13:13:32.515Z,28.10
2018-08-18T13:16:00.935Z,28.70
2018-08-18T13:18:29.564Z,29.50
2018-08-18T13:20:57.892Z,29.90
2018-08-18T13:23:27.200Z,30.70
2018-08-18T13:25:55.717Z,30.70
2018-08-18T13:28:24.101Z,30.70
2018-08-18T13:30:52.522Z,31.20
2018-08-18T13:33:20.992Z,31.30
2018-08-18T13:35:50.154Z,30.30
2018-08-18T13:38:28.863Z,30.70
2018-08-18T13:40:57.391Z,30.90
2018-08-18T13:43:40.366Z,30.00
2018-08-18T13:46:11.334Z,29.50
2018-08-18T13:48:44.121Z,29.60
2018-08-18T13:51:12.516Z,29.30
2018-08-18T13:53:47.007Z,30.00
2018-08-18T13:56:15.372Z,30.90
2018-08-18T13:58:43.890Z,31.10
2018-08-18T14:01:45.623Z,31.50
2018-08-18T14:04:20.686Z,31.70
2018-08-18T14:06:52.540Z,31.50
2018-08-18T14:09:20.966Z,32.40
2018-08-18T14:11:49.811Z,33.10
2018-08-18T14:14:18.193Z,33.90
2018-08-18T14:16:46.616Z,34.50
2018-08-18T14:19:14.970Z,34.30
2018-08-18T14:21:43.355Z,34.20
2018-08-18T14:24:11.699Z,33.90
2018-08-18T14:26:46.087Z,33.60
2018-08-18T14:29:14.996Z,33.50
2018-08-18T14:31:43.360Z,33.20
2018-08-18T14:34:11.918Z,32.90
2018-08-18T14:36:40.195Z,32.60
2018-08-18T14:39:08.570Z,32.40
2018-08-18T14:41:38.944Z,31.80
2018-08-18T14:44:07.782Z,31.90
2018-08-18T14:46:36.227Z,32.80
2018-08-18T14:49:04.664Z,33.20
2018-08-18T14:51:33.151Z,33.80
2018-08-18T14:54:01.595Z,34.10
2018-08-18T14:56:29.975Z,34.20
2018-08-18T14:58:58.372Z,33.80
2018-08-18T15:01:26.864Z,33.10
2018-08-18T15:03:55.334Z,33.80
2018-08-18T15:06:23.876Z,33.80
2018-08-18T15:08:52.349Z,33.90
2018-08-18T15:11:20.686Z,33.50
2018-08-18T15:13:49.074Z,32.70
2018-08-18T15:16:17.466Z,33.00
2018-08-18T15:18:45.862Z,34.10
2018-08-18T15:21:14.326Z,34.00
2018-08-18T15:23:42.707Z,33.50
2018-08-18T15:26:11.042Z,33.00
2018-08-18T15:28:39.435Z,33.40
2018-08-18T15:31:07.814Z,33.50
2018-08-18T15:33:36.208Z,34.30
2018-08-18T15:36:05.602Z,34.60
2018-08-18T15:38:44.059Z,34.80
2018-08-18T15:41:12.815Z,34.40
2018-08-18T15:43:41.286Z,33.90
2018-08-18T15:46:09.705Z,33.60
2018-08-18T15:48:40.651Z,33.60
2018-08-18T15:51:09.057Z,33.50
2018-08-18T15:53:49.928Z,34.20
2018-08-18T15:56:19.295Z,34.20
2018-08-18T15:58:48.362Z,34.20
2018-08-18T16:01:16.960Z,33.90
2018-08-18T16:03:45.350Z,34.40
2018-08-18T16:06:13.965Z,35.00
2018-08-18T16:08:42.406Z,34.80
2018-08-18T16:11:10.838Z,34.70
2018-08-18T16:13:39.441Z,34.40
2018-08-18T16:16:07.819Z,34.10
2018-08-18T16:18:36.224Z,33.70
2018-08-18T16:21:09.938Z,34.00
2018-08-18T16:23:40.385Z,34.40
2018-08-18T16:26:09.652Z,34.90
2018-08-18T16:28:38.807Z,35.70
2018-08-18T16:31:07.399Z,35.80
2018-08-18T16:33:35.898Z,35.60
2018-08-18T16:36:04.287Z,35.10
2018-08-18T16:38:32.722Z,35.20
2018-08-18T16:41:01.108Z,35.60
2018-08-18T16:43:32.942Z,35.60
2018-08-18T16:46:31.432Z,35.60
2018-08-18T16:49:00.198Z,35.90
2018-08-18T16:51:28.623Z,36.10
2018-08-18T16:54:11.290Z,36.30
2018-08-18T16:56:39.723Z,36.70
2018-08-18T16:59:08.159Z,36.90
2018-08-18T17:01:36.519Z,37.10
2018-08-18T17:04:05.015Z,38.00
2018-08-18T17:06:33.411Z,37.70
2018-08-18T17:09:01.810Z,37.30
2018-08-18T17:11:30.225Z,37.70
2018-08-18T17:14:00.191Z,37.80
2018-08-18T17:16:28.635Z,37.70
2018-08-18T17:18:57.101Z,37.80
2018-08-18T17:21:25.600Z,39.20
2018-08-18T17:23:54.038Z,38.70
2018-08-18T17:26:22.591Z,38.90
2018-08-18T17:28:51.081Z,38.80
2018-08-18T17:31:19.534Z,38.70
2018-08-18T17:33:48.038Z,39.00
2018-08-18T17:36:16.389Z,40.00
2018-08-18T17:38:44.808Z,39.40
2018-08-18T17:41:13.161Z,39.70
2018-08-18T17:43:41.591Z,39.90
2018-08-18T17:46:09.967Z,40.10
2018-08-18T17:48:43.671Z,40.00
2018-08-18T17:51:12.044Z,40.40
2018-08-18T17:53:49.137Z,40.30
2018-08-18T17:56:17.519Z,40.30
2018-08-18T17:58:45.927Z,40.50
2018-08-18T18:01:14.311Z,40.60
2018-08-18T18:03:42.652Z,40.70
2018-08-18T18:06:11.037Z,40.90
2018-08-18T18:08:39.460Z,41.00
2018-08-18T18:11:07.858Z,41.20
2018-08-18T18:13:36.746Z,41.50
2018-08-18T18:16:14.318Z,41.40
2018-08-18T18:18:46.745Z,41.50
2018-08-18T18:21:15.312Z,41.80
2018-08-18T18:23:43.748Z,42.00
2018-08-18T18:26:12.274Z,42.10
2018-08-18T18:28:40.649Z,42.00
2018-08-18T18:31:09.296Z,42.10
2018-08-18T18:33:37.737Z,42.10
2018-08-18T18:36:06.329Z,42.20
2018-08-18T18:38:49.040Z,42.20
2018-08-18T18:41:17.454Z,42.20
2018-08-18T18:43:56.067Z,42.40
2018-08-18T18:46:24.451Z,42.70
2018-08-18T18:48:53.111Z,42.80
2018-08-18T18:51:21.735Z,43.00
2018-08-18T18:53:51.627Z,43.20
2018-08-18T18:56:20.143Z,43.30
2018-08-18T18:58:48.680Z,43.50
2018-08-18T19:01:18.973Z,43.60
2018-08-18T19:03:47.295Z,44.20
2018-08-18T19:06:15.694Z,43.40
2018-08-18T19:09:03.199Z,43.70
2018-08-18T19:11:31.665Z,43.70
2018-08-18T19:14:00.068Z,43.70
2018-08-18T19:16:28.475Z,43.80
2018-08-18T19:18:56.844Z,43.90
2018-08-18T19:21:31.526Z,44.10
2018-08-18T19:24:01.136Z,44.30
2018-08-18T19:26:41.350Z,45.50
2018-08-18T19:29:09.726Z,44.80
2018-08-18T19:31:38.139Z,44.50
2018-08-18T19:34:14.622Z,44.70
2018-08-18T19:36:55.145Z,44.80
2018-08-18T19:39:25.774Z,44.80
2018-08-18T19:41:57.784Z,45.20
2018-08-18T19:44:26.158Z,44.70
2018-08-18T19:46:54.913Z,44.90
2018-08-18T19:49:47.074Z,45.00
2018-08-18T19:52:16.698Z,45.40
2018-08-18T19:54:47.083Z,45.80
2018-08-18T19:57:23.495Z,45.90
2018-08-18T19:59:52.187Z,46.20
2018-08-18T20:02:20.670Z,46.80
2018-08-18T20:04:49.746Z,46.50
2018-08-18T20:07:18.748Z,46.90
2018-08-18T20:09:47.411Z,46.70
2018-08-18T20:12:15.793Z,45.90
2018-08-18T20:14:44.294Z,46.30
2018-08-18T20:17:12.679Z,46.30
2018-08-18T20:19:41.172Z,46.20
2018-08-18T20:22:15.378Z,46.70
2018-08-18T20:24:43.893Z,46.00
2018-08-18T20:27:12.295Z,48.10
2018-08-18T20:29:40.683Z,48.10
2018-08-18T20:32:09.120Z,48.50
2018-08-18T20:34:37.518Z,49.30
2018-08-18T20:37:05.972Z,49.10
2018-08-18T20:39:34.449Z,49.40
2018-08-18T20:42:02.898Z,49.20
2018-08-18T20:44:31.258Z,48.70
2018-08-18T20:46:59.650Z,48.20
2018-08-18T20:49:28.064Z,49.00
2018-08-18T20:51:56.457Z,48.70
2018-08-18T20:54:24.945Z,49.10
2018-08-18T20:56:53.428Z,49.80
2018-08-18T20:59:21.807Z,50.60
2018-08-18T21:01:50.180Z,50.50
2018-08-18T21:04:18.576Z,49.60
2018-08-18T21:06:47.265Z,48.90
2018-08-18T21:09:26.741Z,48.60
2018-08-18T21:11:55.142Z,48.20
2018-08-18T21:14:26.166Z,47.90
2018-08-18T21:16:54.861Z,47.70
2018-08-18T21:19:24.871Z,47.70
2018-08-18T21:21:54.380Z,48.50
2018-08-18T21:24:22.972Z,48.90
2018-08-18T21:26:51.976Z,49.10
2018-08-18T21:29:23.252Z,48.70
2018-08-18T21:31:51.671Z,48.20
2018-08-18T21:34:20.109Z,47.50
2018-08-18T21:36:49.361Z,48.20
2018-08-18T21:39:17.885Z,48.40
2018-08-18T21:41:47.626Z,48.20
2018-08-18T21:44:16.237Z,48.30
2018-08-18T21:46:45.024Z,48.90
2018-08-18T21:49:13.656Z,49.50
2018-08-18T21:51:42.148Z,48.80
2018-08-18T21:54:10.715Z,48.70
2018-08-18T21:56:41.326Z,48.80
2018-08-18T21:59:11.268Z,48.80
2018-08-18T22:01:39.795Z,48.90
2018-08-18T22:04:09.132Z,49.00
2018-08-18T22:06:37.570Z,49.20
2018-08-18T22:09:22.642Z,49.50
2018-08-18T22:11:51.223Z,49.60
2018-08-18T22:14:19.910Z,50.30
2018-08-18T22:16:55.383Z,52.00
2018-08-18T22:19:23.897Z,53.80
2018-08-18T22:21:52.427Z,53.10
2018-08-18T22:24:20.952Z,51.90
2018-08-18T22:26:49.780Z,51.30
2018-08-18T22:29:19.525Z,51.20
2018-08-18T22:31:48.043Z,52.10
2018-08-18T22:34:16.617Z,51.60
2018-08-18T22:36:45.087Z,52.10
2018-08-18T22:39:13.586Z,53.30
2018-08-18T22:41:42.975Z,53.20
2018-08-18T22:44:11.405Z,53.40
2018-08-18T22:46:39.916Z,53.10
2018-08-18T22:49:08.345Z,53.40
2018-08-18T22:51:36.798Z,53.70
2018-08-18T22:54:06.118Z,54.00
2018-08-18T22:56:35.360Z,54.40
2018-08-18T22:59:05.970Z,54.70
2018-08-18T23:01:35.959Z,55.00
2018-08-18T23:04:07.512Z,55.30
2018-08-18T23:06:37.232Z,56.30
2018-08-18T23:09:07.023Z,56.40
2018-08-18T23:11:35.473Z,57.00
2018-08-18T23:14:04.016Z,57.30
2018-08-18T23:16:32.440Z,57.40
2018-08-18T23:19:00.926Z,57.50
2018-08-18T23:21:31.665Z,57.80
2018-08-18T23:24:02.456Z,58.10
2018-08-18T23:26:30.839Z,58.10
2018-08-18T23:28:59.314Z,57.90
2018-08-18T23:31:27.794Z,57.90
2018-08-18T23:33:56.243Z,57.90
2018-08-18T23:36:24.752Z,57.90
2018-08-18T23:38:58.175Z,58.10
2018-08-18T23:41:26.656Z,58.30
2018-08-18T23:43:55.072Z,58.80
2018-08-18T23:46:23.492Z,59.30
2018-08-18T23:48:51.939Z,59.60
2018-08-18T23:51:26.037Z,59.70
2018-08-18T23:53:54.625Z,59.80
2018-08-18T23:56:23.095Z,59.80
2018-08-18T23:58:51.592Z,59.90
